Time,TemperatureF,DewpointF,PressureIn,WindDirection,WindDirectionDegrees,WindSpeedMPH,WindSpeedGustMPH,Humidity,HourlyPrecipIn,Conditions,Clouds,dailyrainin,SolarRadiationWatts/m^2,SoftwareType,DateUTC
2014-11-24 00:00:00,49.0,48.0,-100.00,SE,135,3.0,-999.0,94,0.06,,,-99.99,0.000000,,2014-11-24 05:00:00,
2014-11-24 00:43:00,49.0,48.0,-100.00,SE,135,3.0,-999.0,94,0.06,,,-99.99,0.000000,,2014-11-24 05:43:00,
2014-11-24 00:52:00,49.0,48.0,-100.00,SE,135,3.0,-999.0,94,0.06,,,-99.99,0.000000,,2014-11-24 05:52:00,
2014-11-24 03:00:00,50.0,49.0,-100.00,SW,225,5.0,-999.0,94,0.04,,,-99.99,0.000000,,2014-11-24 08:00:00,
2014-11-24 03:42:00,50.0,49.0,-100.00,SW,225,5.0,-999.0,94,0.04,,,-99.99,0.000000,,2014-11-24 08:42:00,
2014-11-24 03:52:00,50.0,49.0,-100.00,SW,225,5.0,-999.0,94,0.04,,,-99.99,0.000000,,2014-11-24 08:52:00,
2014-11-24 04:00:00,51.0,49.0,-100.00,WSW,247,8.0,-999.0,93,0.02,,,-99.99,0.000000,,2014-11-24 09:00:00,
2014-11-24 04:43:00,51.0,49.0,-100.00,WSW,247,8.0,-999.0,93,0.02,,,-99.99,0.000000,,2014-11-24 09:43:00,
2014-11-24 04:53:00,51.0,49.0,-100.00,WSW,247,8.0,-999.0,93,0.02,,,-99.99,0.000000,,2014-11-24 09:53:00,
2014-11-24 05:00:00,51.0,48.0,-100.00,WSW,247,8.0,-999.0,92,0.02,,,-99.99,0.000000,,2014-11-24 10:00:00,
2014-11-24 05:43:00,51.0,48.0,-100.00,WSW,247,8.0,-999.0,92,0.02,,,-99.99,0.000000,,2014-11-24 10:43:00,
2014-11-24 05:53:00,51.0,48.0,-100.00,WSW,247,8.0,-999.0,92,0.02,,,-99.99,0.000000,,2014-11-24 10:53:00,
2014-11-24 06:00:00,50.0,48.0,-100.00,SW,225,6.0,-999.0,93,0.08,,,-99.99,0.000000,,2014-11-24 11:00:00,
2014-11-24 06:43:00,50.0,48.0,-100.00,SW,225,6.0,-999.0,93,0.08,,,-99.99,0.000000,,2014-11-24 11:43:00,
2014-11-24 06:53:00,50.0,48.0,-100.00,SW,225,6.0,-999.0,93,0.08,,,-99.99,0.000000,,2014-11-24 11:53:00,
2014-11-24 07:00:00,50.0,48.0,-100.00,SSW,202,5.0,-999.0,94,0.02,,,-99.99,0.000000,,2014-11-24 12:00:00,
2014-11-24 07:42:00,50.0,48.0,-100.00,SSW,202,5.0,-999.0,94,0.02,,,-99.99,0.000000,,2014-11-24 12:42:00,
2014-11-24 07:52:00,50.0,48.0,-100.00,SSW,202,5.0,-999.0,94,0.02,,,-99.99,0.000000,,2014-11-24 12:52:00,
2014-11-24 09:00:00,50.0,48.0,-100.00,SW,225,3.0,-999.0,94,0.01,,,-99.99,6.960000,,2014-11-24 14:00:00,
2014-11-24 09:42:00,50.0,48.0,-100.00,SW,225,3.0,-999.0,94,0.01,,,-99.99,6.960000,,2014-11-24 14:42:00,
2014-11-24 09:52:00,50.0,48.0,-100.00,SW,225,3.0,-999.0,94,0.01,,,-99.99,6.960000,,2014-11-24 14:52:00,
2014-11-24 10:00:00,50.0,48.0,-100.00,WSW,247,2.0,-999.0,94,0.02,,,-99.99,25.520000,,2014-11-24 15:00:00,
2014-11-24 10:44:00,50.0,48.0,-100.00,WSW,247,2.0,-999.0,94,0.02,,,-99.99,25.520000,,2014-11-24 15:44:00,
2014-11-24 10:54:00,50.0,48.0,-100.00,WSW,247,2.0,-999.0,94,0.02,,,-99.99,25.520000,,2014-11-24 15:54:00,
2014-11-24 12:43:00,47.0,44.0,-100.00,WSW,247,14.0,-999.0,91,0.10,,,-99.99,17.400000,,2014-11-24 17:43:00,
2014-11-24 12:53:00,47.0,44.0,-100.00,WSW,247,14.0,-999.0,91,0.10,,,-99.99,17.400000,,2014-11-24 17:53:00,